Time;durP1;ratioP1;P1;durP2;ratioP2;P2;SDS_P1;SDS_P2;PMS_P1;PMS_P2;Temp;Humidity;BMP_temperature;BMP_pressure;BME280_temperature;BME280_humidity;BME280_pressure;Samples;Min_cycle;Max_cycle;Signal;HPM_P1;HPM_P2
2023/04/16 00:01:25;;;;;;;7.47;2.97;;;;;;;7.81;99.70;102116.69;5034590;28;20535;-62
2023/04/16 00:03:51;;;;;;;6.03;2.80;;;;;;;7.79;100.00;102116.75;5024658;28;20021;-62
2023/04/16 00:06:16;;;;;;;9.23;3.30;;;;;;;7.79;99.85;102114.13;5025060;28;20551;-62
2023/04/16 00:08:42;;;;;;;9.43;2.97;;;;;;;7.78;99.98;102110.63;5031553;28;20033;-62
2023/04/16 00:11:07;;;;;;;9.70;3.30;;;;;;;7.78;100.00;102118.56;5029419;28;20129;-62
2023/04/16 00:13:33;;;;;;;8.35;2.97;;;;;;;7.79;100.00;102114.13;5033662;28;20060;-62
2023/04/16 00:15:58;;;;;;;7.35;2.95;;;;;;;7.79;100.00;102116.75;5041626;28;20033;-63
2023/04/16 00:18:24;;;;;;;7.30;3.10;;;;;;;7.79;100.00;102122.06;5028388;28;20033;-62
2023/04/16 00:20:50;;;;;;;10.43;3.38;;;;;;;7.78;100.00;102115.06;5028990;28;20029;-62
2023/04/16 00:23:16;;;;;;;8.77;3.38;;;;;;;7.76;100.00;102122.19;5035150;28;20025;-62
2023/04/16 00:25:41;;;;;;;12.32;3.58;;;;;;;7.76;100.00;102114.25;5043623;28;20383;-63
2023/04/16 00:28:07;;;;;;;7.15;3.60;;;;;;;7.76;100.00;102109.84;5036440;28;20041;-62
2023/04/16 00:30:33;;;;;;;8.45;3.42;;;;;;;7.76;100.00;102112.50;5029924;28;20147;-63
2023/04/16 00:32:58;;;;;;;9.45;3.00;;;;;;;7.78;100.00;102118.56;5024718;28;20423;-63
2023/04/16 00:35:24;;;;;;;7.72;3.30;;;;;;;7.77;100.00;102113.34;5021011;28;20105;-63
2023/04/16 00:37:49;;;;;;;10.18;4.00;;;;;;;7.75;100.00;102110.75;5018009;28;20045;-63
2023/04/16 00:40:15;;;;;;;6.80;3.55;;;;;;;7.74;100.00;102118.75;5035115;28;20475;-63
2023/04/16 00:42:40;;;;;;;9.60;3.40;;;;;;;7.74;100.00;102114.34;5030600;28;20029;-63
2023/04/16 00:45:06;;;;;;;6.95;3.55;;;;;;;7.74;100.00;102119.63;5030558;28;20482;-62
2023/04/16 00:47:32;;;;;;;11.02;4.35;;;;;;;7.74;100.00;102111.72;5027157;28;20038;-62
2023/04/16 00:49:57;;;;;;;7.93;3.80;;;;;;;7.75;100.00;102117.84;5030318;28;20101;-63
2023/04/16 00:52:23;;;;;;;8.45;3.53;;;;;;;7.75;100.00;102110.75;5021150;28;20021;-63
2023/04/16 00:54:48;;;;;;;10.05;3.80;;;;;;;7.74;100.00;102108.19;5028216;28;20121;-63
2023/04/16 00:57:13;;;;;;;7.82;4.00;;;;;;;7.73;100.00;102107.34;5014559;28;20372;-62
2023/04/16 00:59:40;;;;;;;8.90;3.67;;;;;;;7.73;100.00;102107.34;5021378;28;20033;-63
2023/04/16 01:02:06;;;;;;;9.77;4.28;;;;;;;7.74;100.00;102109.06;5029130;28;20025;-62
2023/04/16 01:04:32;;;;;;;9.20;3.85;;;;;;;7.77;100.00;102108.91;5030363;28;20534;-63
2023/04/16 01:06:58;;;;;;;14.80;4.05;;;;;;;7.78;100.00;102110.63;5029040;28;20421;-63
2023/04/16 01:09:24;;;;;;;11.93;4.20;;;;;;;7.79;100.00;102108.84;5027082;28;20021;-63
2023/04/16 01:11:49;;;;;;;8.60;4.07;;;;;;;7.79;100.00;102108.84;5037803;28;20529;-63
2023/04/16 01:14:14;;;;;;;9.20;4.25;;;;;;;7.78;100.00;102109.78;5025300;28;20108;-63
2023/04/16 01:16:40;;;;;;;10.13;4.25;;;;;;;7.79;100.00;102114.13;5035991;28;20061;-62
2023/04/16 01:19:05;;;;;;;14.55;4.32;;;;;;;7.78;100.00;102105.34;5036958;28;20029;-62
2023/04/16 01:21:31;;;;;;;12.07;4.47;;;;;;;7.78;100.00;102109.78;5049903;28;20064;-62
2023/04/16 01:23:56;;;;;;;13.27;4.40;;;;;;;7.76;100.00;102101.03;5044310;28;20100;-63
2023/04/16 01:26:21;;;;;;;10.98;4.30;;;;;;;7.78;100.00;102105.34;5034241;28;20029;-62
2023/04/16 01:28:47;;;;;;;10.82;4.45;;;;;;;7.80;100.00;102104.41;5039622;28;20043;-64
2023/04/16 01:31:12;;;;;;;11.60;4.95;;;;;;;7.80;100.00;102104.41;5023447;28;20208;-63
2023/04/16 01:33:37;;;;;;;12.80;4.63;;;;;;;7.81;100.00;102104.34;5033111;28;20030;-63
2023/04/16 01:36:03;;;;;;;9.48;4.43;;;;;;;7.83;100.00;102110.44;5072250;28;20078;-63
2023/04/16 01:38:28;;;;;;;9.68;5.22;;;;;;;7.85;100.00;102108.56;5026726;28;20055;-63
2023/04/16 01:40:58;;;;;;;13.75;4.70;;;;;;;7.85;100.00;102115.66;5033950;28;20032;-63
2023/04/16 01:43:23;;;;;;;11.00;5.22;;;;;;;7.84;100.00;102113.91;5034937;28;20017;-63
2023/04/16 01:45:49;;;;;;;11.27;5.45;;;;;;;7.85;100.00;102115.66;5044620;28;20021;-62
2023/04/16 01:48:14;;;;;;;9.50;4.78;;;;;;;7.85;100.00;102124.44;5050668;28;20029;-62
2023/04/16 01:50:40;;;;;;;12.57;5.32;;;;;;;7.84;100.00;102112.13;5047221;28;20025;-62
2023/04/16 01:53:05;;;;;;;10.00;5.53;;;;;;;7.83;100.00;102118.38;5049023;28;20032;-63
2023/04/16 01:55:33;;;;;;;9.18;5.55;;;;;;;7.84;100.00;102120.06;5048039;28;20021;-63
2023/04/16 01:57:58;;;;;;;10.38;5.68;;;;;;;7.86;100.00;102117.34;5049432;28;20032;-63
2023/04/16 02:00:24;;;;;;;12.27;5.85;;;;;;;7.88;100.00;102115.53;5045063;28;20017;-63
2023/04/16 02:02:49;;;;;;;11.07;6.20;;;;;;;7.87;100.00;102114.63;5025374;28;20049;-62
2023/04/16 02:05:14;;;;;;;11.27;5.45;;;;;;;7.87;100.00;102114.63;5021889;28;20045;-62
2023/04/16 02:07:40;;;;;;;13.48;5.95;;;;;;;7.89;100.00;102118.09;5037867;28;20028;-62
2023/04/16 02:10:06;;;;;;;11.65;6.55;;;;;;;7.87;100.00;102114.63;5046367;28;20107;-63
2023/04/16 02:12:31;;;;;;;12.02;5.88;;;;;;;7.87;100.00;102106.69;5044218;28;20021;-62
2023/04/16 02:14:56;;;;;;;9.20;5.68;;;;;;;7.89;100.00;102111.94;5038754;28;20021;-62
2023/04/16 02:17:22;;;;;;;11.68;6.20;;;;;;;7.86;100.00;102112.06;5023837;28;20017;-62
2023/04/16 02:19:47;;;;;;;11.40;5.72;;;;;;;7.87;100.00;102105.84;5035273;28;20025;-62
2023/04/16 02:22:12;;;;;;;12.82;6.22;;;;;;;7.87;100.00;102105.84;5025324;28;20057;-62
2023/04/16 02:24:38;;;;;;;11.55;5.90;;;;;;;7.86;100.00;102105.00;5045422;28;20017;-62
2023/04/16 02:27:03;;;;;;;10.10;6.00;;;;;;;7.88;100.00;102108.44;5027208;28;20049;-63
2023/04/16 02:29:28;;;;;;;12.02;5.88;;;;;;;7.90;100.00;102109.22;5037711;28;20037;-62
2023/04/16 02:31:54;;;;;;;11.68;6.78;;;;;;;7.92;100.00;102110.00;5040032;28;20033;-62
2023/04/16 02:34:19;;;;;;;10.23;6.00;;;;;;;7.94;100.00;102113.47;5045644;28;20053;-63
2023/04/16 02:36:44;;;;;;;9.45;5.90;;;;;;;7.94;100.00;102112.56;5048869;28;20052;-62
2023/04/16 02:39:10;;;;;;;9.35;5.82;;;;;;;7.96;100.00;102114.25;5040556;28;20497;-63
2023/04/16 02:41:35;;;;;;;11.27;5.88;;;;;;;7.96;100.00;102110.75;5047551;28;20517;-62
2023/04/16 02:44:00;;;;;;;10.70;5.97;;;;;;;7.96;100.00;102108.09;5043963;28;20028;-61
2023/04/16 02:46:26;;;;;;;9.45;6.18;;;;;;;7.97;100.00;102108.00;5028768;28;20033;-61
2023/04/16 02:48:51;;;;;;;9.68;6.00;;;;;;;7.97;100.00;102115.94;5037225;28;20045;-62
2023/04/16 02:51:17;;;;;;;8.63;6.05;;;;;;;7.95;100.00;102111.66;5021916;28;20022;-62
2023/04/16 02:53:44;;;;;;;11.65;5.80;;;;;;;7.96;100.00;102118.69;5034949;28;20032;-62
2023/04/16 02:56:10;;;;;;;14.00;6.65;;;;;;;7.92;100.00;102117.94;5023276;28;20033;-62
2023/04/16 02:58:36;;;;;;;11.23;6.40;;;;;;;7.92;100.00;102120.56;5040344;28;20524;-62
2023/04/16 03:01:01;;;;;;;10.65;6.55;;;;;;;7.93;100.00;102126.75;5048370;28;20020;-62
2023/04/16 03:03:26;;;;;;;10.90;6.70;;;;;;;7.94;100.00;102123.16;5019209;28;20726;-62
2023/04/16 03:05:51;;;;;;;11.35;6.72;;;;;;;7.93;100.00;102121.47;5028202;28;20033;-62
2023/04/16 03:08:17;;;;;;;10.13;7.05;;;;;;;7.95;100.00;102127.53;5048334;28;20385;-62
2023/04/16 03:10:42;;;;;;;13.18;7.88;;;;;;;7.94;100.00;102124.03;5042249;28;20104;-62
2023/04/16 03:13:07;;;;;;;13.52;8.10;;;;;;;7.93;100.00;102132.03;5032759;28;20478;-62
2023/04/16 03:15:33;;;;;;;10.32;7.47;;;;;;;7.91;100.00;102123.28;5030121;28;20037;-62
2023/04/16 03:17:58;;;;;;;11.52;7.68;;;;;;;7.93;100.00;102135.53;5030698;28;20084;-63
2023/04/16 03:20:23;;;;;;;13.43;8.05;;;;;;;7.91;100.00;102134.75;5034834;28;20017;-62
2023/04/16 03:22:51;;;;;;;14.80;8.95;;;;;;;7.91;100.00;102134.75;5027918;28;20029;-63
2023/04/16 03:25:16;;;;;;;13.75;8.88;;;;;;;7.92;100.00;102136.44;5045980;28;20025;-62
2023/04/16 03:27:42;;;;;;;13.23;9.18;;;;;;;7.92;100.00;102139.09;5040358;28;20040;-62
2023/04/16 03:30:10;;;;;;;18.70;9.50;;;;;;;7.93;100.00;102138.19;5024024;28;20049;-62
2023/04/16 03:32:36;;;;;;;13.15;8.85;;;;;;;7.93;100.00;102137.34;5035293;28;20392;-62
2023/04/16 03:35:02;;;;;;;14.85;9.35;;;;;;;7.92;100.00;102139.09;5036217;28;20037;-62
2023/04/16 03:37:27;;;;;;;16.10;9.68;;;;;;;7.91;100.00;102140.03;5033436;28;20121;-62
2023/04/16 03:39:52;;;;;;;18.98;9.75;;;;;;;7.93;100.00;102145.28;5050327;28;20111;-62
2023/04/16 03:42:17;;;;;;;19.98;10.55;;;;;;;7.91;100.00;102137.41;5044258;28;20052;-62
2023/04/16 03:44:43;;;;;;;15.68;10.65;;;;;;;7.91;100.00;102142.69;5030476;28;20365;-63
2023/04/16 03:47:08;;;;;;;16.20;11.02;;;;;;;7.89;100.00;102138.38;5034403;28;20029;-62
2023/04/16 03:49:34;;;;;;;17.08;12.10;;;;;;;7.88;100.00;102142.81;5039833;28;20479;-62
2023/04/16 03:51:59;;;;;;;20.67;12.00;;;;;;;7.89;100.00;102143.66;5036873;28;20032;-62
2023/04/16 03:54:24;;;;;;;18.23;12.80;;;;;;;7.89;100.00;102144.56;5047269;28;20025;-62
2023/04/16 03:56:50;;;;;;;17.45;12.63;;;;;;;7.88;100.00;102140.19;5039920;28;20491;-62
2023/04/16 03:59:16;;;;;;;16.52;12.02;;;;;;;7.89;100.00;102139.25;5049420;28;20436;-62
2023/04/16 04:01:41;;;;;;;17.05;11.75;;;;;;;7.90;100.00;102138.31;5047440;28;20033;-63
2023/04/16 04:04:08;;;;;;;16.60;11.80;;;;;;;7.89;100.00;102144.56;5036774;28;20030;-62
2023/04/16 04:06:33;;;;;;;18.38;11.93;;;;;;;7.88;100.00;102137.53;5028671;28;20381;-63
2023/04/16 04:08:59;;;;;;;17.52;11.52;;;;;;;7.88;100.00;102136.69;5028174;28;20141;-63
2023/04/16 04:11:24;;;;;;;18.95;12.02;;;;;;;7.87;100.00;102135.81;5037591;28;20069;-62
2023/04/16 04:13:49;;;;;;;19.90;11.35;;;;;;;7.87;100.00;102135.81;5039216;28;20471;-63
2023/04/16 04:16:15;;;;;;;16.65;11.25;;;;;;;7.88;100.00;102137.53;5033971;28;20028;-62
2023/04/16 04:18:40;;;;;;;18.45;10.73;;;;;;;7.87;100.00;102132.31;5045786;28;20033;-62
2023/04/16 04:21:06;;;;;;;18.67;11.18;;;;;;;7.87;100.00;102140.25;5038377;28;20052;-62
2023/04/16 04:23:32;;;;;;;17.80;10.73;;;;;;;7.85;100.00;102147.41;5029816;28;20021;-62
2023/04/16 04:25:58;;;;;;;19.85;11.30;;;;;;;7.85;100.00;102136.81;5036125;28;20083;-62
2023/04/16 04:28:23;;;;;;;18.77;11.35;;;;;;;7.83;100.00;102136.00;5038556;28;20462;-62
2023/04/16 04:30:48;;;;;;;18.20;10.75;;;;;;;7.84;100.00;102143.03;5035639;28;20032;-63
2023/04/16 04:33:14;;;;;;;15.13;11.40;;;;;;;7.84;100.00;102145.66;5046023;28;20040;-62
2023/04/16 04:35:39;;;;;;;18.60;11.13;;;;;;;7.82;100.00;102148.38;5043499;28;20021;-63
2023/04/16 04:38:04;;;;;;;17.60;11.05;;;;;;;7.83;100.00;102154.50;5025508;28;20029;-62
2023/04/16 04:40:30;;;;;;;21.15;12.18;;;;;;;7.80;100.00;102149.38;5034996;28;20413;-62
2023/04/16 04:42:55;;;;;;;18.85;12.20;;;;;;;7.80;100.00;102152.88;5034583;28;20024;-63
2023/04/16 04:45:24;;;;;;;21.65;12.50;;;;;;;7.79;100.00;102153.78;5042477;28;20529;-62
2023/04/16 04:47:50;;;;;;;20.80;11.32;;;;;;;7.80;100.00;102157.31;5044308;28;20036;-63
2023/04/16 04:50:15;;;;;;;21.38;11.82;;;;;;;7.80;100.00;102160.81;5032809;28;20036;-63
2023/04/16 04:52:41;;;;;;;21.63;12.13;;;;;;;7.80;100.00;102158.16;5048072;28;20104;-63
2023/04/16 04:55:06;;;;;;;19.52;12.60;;;;;;;7.79;100.00;102159.09;5037937;28;20026;-63
2023/04/16 04:57:31;;;;;;;21.08;11.80;;;;;;;7.77;100.00;102156.50;5040812;28;20032;-63
2023/04/16 04:59:57;;;;;;;20.25;11.30;;;;;;;7.78;100.00;102162.69;5049352;28;20029;-62
2023/04/16 05:02:22;;;;;;;20.95;11.70;;;;;;;7.78;100.00;102166.16;5034986;28;20543;-63
2023/04/16 05:04:47;;;;;;;24.02;12.25;;;;;;;7.78;100.00;102166.16;5026530;28;20036;-63
2023/04/16 05:07:12;;;;;;;18.98;11.38;;;;;;;7.79;100.00;102164.38;5044974;28;20029;-62
2023/04/16 05:09:38;;;;;;;17.23;11.38;;;;;;;7.78;100.00;102166.16;5032111;28;20041;-62
2023/04/16 05:12:03;;;;;;;20.40;12.25;;;;;;;7.80;100.00;102168.75;5032296;28;20104;-62
2023/04/16 05:14:28;;;;;;;20.10;12.27;;;;;;;7.78;100.00;102167.97;5042783;28;20030;-63
2023/04/16 05:16:54;;;;;;;23.05;11.40;;;;;;;7.80;100.00;102166.09;5049778;28;20493;-62
2023/04/16 05:19:20;;;;;;;22.95;12.45;;;;;;;7.82;100.00;102168.69;5031085;28;20041;-62
2023/04/16 05:21:45;;;;;;;19.38;12.00;;;;;;;7.82;100.00;102168.69;5043937;28;20546;-62
2023/04/16 05:24:10;;;;;;;19.15;11.75;;;;;;;7.80;100.00;102176.69;5029613;28;20487;-62
2023/04/16 05:26:35;;;;;;;21.63;12.30;;;;;;;7.81;100.00;102166.94;5042649;28;20057;-62
2023/04/16 05:29:01;;;;;;;19.27;11.80;;;;;;;7.81;100.00;102175.78;5042134;28;20030;-62
2023/04/16 05:31:26;;;;;;;19.65;11.45;;;;;;;7.83;100.00;102175.66;5038538;28;20025;-62
2023/04/16 05:33:51;;;;;;;20.27;12.88;;;;;;;7.83;100.00;102176.56;5044217;28;20025;-62
2023/04/16 05:36:16;;;;;;;18.98;11.88;;;;;;;7.84;100.00;102178.25;5043481;28;20056;-62
2023/04/16 05:38:42;;;;;;;19.55;11.80;;;;;;;7.83;100.00;102183.59;5043959;28;20036;-63
2023/04/16 05:41:07;;;;;;;18.55;11.52;;;;;;;7.84;100.00;102188.84;5045363;28;20017;-62
2023/04/16 05:43:32;;;;;;;20.55;12.10;;;;;;;7.85;100.00;102187.06;5048783;28;20029;-62
2023/04/16 05:45:58;;;;;;;18.52;11.15;;;;;;;7.87;100.00;102194.00;5031381;28;20481;-62
2023/04/16 05:48:23;;;;;;;21.63;11.52;;;;;;;7.88;100.00;102195.72;5036769;28;20040;-62
2023/04/16 05:50:49;;;;;;;23.38;11.80;;;;;;;7.88;100.00;102192.22;5039433;28;20060;-62
2023/04/16 05:53:14;;;;;;;18.35;11.18;;;;;;;7.88;100.00;102205.47;5034735;28;20033;-62
2023/04/16 05:55:39;;;;;;;22.45;12.20;;;;;;;7.86;100.00;102202.00;5030406;28;20029;-62
2023/04/16 05:58:05;;;;;;;16.52;11.27;;;;;;;7.85;100.00;102201.16;5037735;28;20450;-62
2023/04/16 06:00:31;;;;;;;16.45;11.18;;;;;;;7.88;100.00;102205.47;5044245;28;20052;-63
2023/04/16 06:02:57;;;;;;;21.83;11.40;;;;;;;7.89;100.00;102210.69;5045006;28;20138;-62
2023/04/16 06:05:23;;;;;;;23.58;11.77;;;;;;;7.90;100.00;102208.88;5018321;28;20135;-62
2023/04/16 06:07:49;;;;;;;19.80;12.02;;;;;;;7.89;100.00;102209.81;5032164;28;20033;-60
2023/04/16 06:10:14;;;;;;;18.83;12.32;;;;;;;7.88;100.00;102211.59;5033816;28;20048;-62
2023/04/16 06:12:39;;;;;;;19.00;10.85;;;;;;;7.89;100.00;102210.69;5035886;28;20363;-63
2023/04/16 06:15:05;;;;;;;21.35;11.82;;;;;;;7.90;100.00;102203.59;5041538;28;20384;-63
2023/04/16 06:17:30;;;;;;;21.58;12.07;;;;;;;7.88;100.00;102208.97;5049732;28;20056;-63
2023/04/16 06:19:56;;;;;;;21.25;12.23;;;;;;;7.90;100.00;102211.53;5042840;28;20025;-63
2023/04/16 06:22:21;;;;;;;19.77;12.10;;;;;;;7.91;100.00;102207.94;5046516;28;20422;-63
2023/04/16 06:24:46;;;;;;;19.92;12.05;;;;;;;7.92;100.00;102214.97;5044336;28;20033;-63
2023/04/16 06:27:12;;;;;;;22.67;11.90;;;;;;;7.93;100.00;102211.41;5037153;28;20044;-62
2023/04/16 06:29:37;;;;;;;22.35;12.52;;;;;;;7.94;100.00;102216.63;5036148;28;20641;-63
2023/04/16 06:32:02;;;;;;;22.05;11.45;;;;;;;7.97;100.00;102215.63;5018901;28;20034;-62
2023/04/16 06:34:28;;;;;;;20.45;11.73;;;;;;;7.97;100.00;102223.56;5032632;28;20545;-63
2023/04/16 06:36:54;;;;;;;23.15;13.20;;;;;;;7.99;100.00;102219.06;5031175;28;20099;-63
2023/04/16 06:39:20;;;;;;;20.38;11.90;;;;;;;8.01;100.00;102221.63;5029171;28;20100;-63
2023/04/16 06:41:47;;;;;;;20.98;11.70;;;;;;;8.01;100.00;102216.34;5021597;28;20470;-63
2023/04/16 06:44:12;;;;;;;21.33;12.07;;;;;;;8.02;100.00;102226.00;5029727;28;20533;-63
2023/04/16 06:46:37;;;;;;;16.35;11.35;;;;;;;8.03;100.00;102230.38;5028834;28;20037;-63
2023/04/16 06:49:02;;;;;;;25.58;12.82;;;;;;;8.02;100.00;102231.31;5025829;28;20099;-63
2023/04/16 06:51:28;;;;;;;21.48;11.90;;;;;;;8.03;100.00;102239.19;5023764;28;20041;-63
2023/04/16 06:53:53;;;;;;;20.23;11.65;;;;;;;8.04;100.00;102232.09;5026300;28;20026;-63
2023/04/16 06:56:18;;;;;;;21.83;12.65;;;;;;;8.04;100.00;102234.75;5032504;28;20037;-63
2023/04/16 06:58:44;;;;;;;23.33;12.10;;;;;;;8.06;100.00;102238.16;5029687;28;20507;-63
2023/04/16 07:01:09;;;;;;;23.10;11.93;;;;;;;8.07;100.00;102247.84;5034254;28;20087;-63
2023/04/16 07:03:35;;;;;;;20.42;12.63;;;;;;;8.07;100.00;102242.53;5028046;28;20022;-63
2023/04/16 07:06:01;;;;;;;22.02;12.65;;;;;;;8.09;100.00;102244.22;5024527;28;20049;-62
2023/04/16 07:08:26;;;;;;;20.83;12.68;;;;;;;8.11;100.00;102252.06;5020435;28;20049;-63
2023/04/16 07:10:52;;;;;;;23.58;12.68;;;;;;;8.11;100.00;102254.69;5024359;28;20053;-62
2023/04/16 07:13:18;;;;;;;22.10;13.18;;;;;;;8.13;100.00;102252.88;5026366;28;20706;-61
2023/04/16 07:15:43;;;;;;;23.60;13.20;;;;;;;8.14;100.00;102259.88;5017262;28;20041;-62
2023/04/16 07:18:08;;;;;;;25.25;13.35;;;;;;;8.15;100.00;102264.25;5021270;28;20076;-63
2023/04/16 07:20:35;;;;;;;22.67;13.43;;;;;;;8.16;100.00;102263.31;5034240;28;20034;-63
2023/04/16 07:23:00;;;;;;;27.20;13.57;;;;;;;8.17;100.00;102267.69;5028788;28;20037;-63
2023/04/16 07:25:25;;;;;;;26.50;13.57;;;;;;;8.19;100.00;102267.59;5025264;28;20111;-62
2023/04/16 07:27:51;;;;;;;23.48;13.25;;;;;;;8.19;100.00;102268.47;5034599;28;20050;-62
2023/04/16 07:30:16;;;;;;;25.73;13.68;;;;;;;8.23;100.00;102269.22;5028481;28;20021;-63
2023/04/16 07:32:41;;;;;;;21.15;13.38;;;;;;;8.24;100.00;102270.91;5035482;28;20060;-62
2023/04/16 07:35:07;;;;;;;24.25;14.40;;;;;;;8.24;100.00;102270.91;5035590;28;20064;-62
2023/04/16 07:37:32;;;;;;;27.17;13.73;;;;;;;8.25;100.00;102276.16;5031177;28;20041;-63
2023/04/16 07:39:59;;;;;;;24.83;13.88;;;;;;;8.26;100.00;102279.63;5024197;28;20037;-62
2023/04/16 07:42:25;;;;;;;22.20;14.40;;;;;;;8.27;100.00;102274.28;5027595;28;20479;-62
2023/04/16 07:44:50;;;;;;;25.67;14.75;;;;;;;8.29;100.00;102279.50;5028794;28;20108;-63
2023/04/16 07:47:15;;;;;;;26.67;14.80;;;;;;;8.30;100.00;102282.09;5022383;28;20069;-63
2023/04/16 07:49:40;;;;;;;30.80;14.32;;;;;;;8.30;100.00;102286.53;5034243;28;20111;-63
2023/04/16 07:52:06;;;;;;;26.77;14.63;;;;;;;8.31;100.00;102286.47;5031897;28;20107;-63
2023/04/16 07:54:31;;;;;;;26.75;15.32;;;;;;;8.31;100.00;102289.13;5034001;28;20036;-63
2023/04/16 07:56:56;;;;;;;30.40;15.73;;;;;;;8.34;100.00;102293.41;5035341;28;20138;-62
2023/04/16 07:59:22;;;;;;;29.00;15.65;;;;;;;8.33;100.00;102289.91;5040926;28;20032;-63
2023/04/16 08:01:47;;;;;;;23.38;14.73;;;;;;;8.35;100.00;102289.84;5035235;28;20542;-63
2023/04/16 08:04:13;;;;;;;33.45;15.93;;;;;;;8.36;100.00;102296.88;5032109;28;20034;-63
2023/04/16 08:06:38;;;;;;;30.67;15.88;;;;;;;8.39;100.00;102293.22;5024258;28;20044;-63
2023/04/16 08:09:03;;;;;;;29.55;16.10;;;;;;;8.40;100.00;102298.44;5036629;28;20033;-63
2023/04/16 08:11:29;;;;;;;31.17;15.88;;;;;;;8.45;100.00;102303.56;5028343;28;20045;-63
2023/04/16 08:13:54;;;;;;;31.13;15.63;;;;;;;8.46;100.00;102307.91;5033806;28;20368;-63
2023/04/16 08:16:19;;;;;;;25.67;15.02;;;;;;;8.48;100.00;102308.72;5022360;28;20030;-63
2023/04/16 08:18:45;;;;;;;30.38;16.60;;;;;;;8.48;100.00;102306.94;5025603;28;20127;-63
2023/04/16 08:21:10;;;;;;;27.70;15.43;;;;;;;8.50;100.00;102313.00;5018863;28;20042;-62
2023/04/16 08:23:35;;;;;;;25.30;15.52;;;;;;;8.52;100.00;102313.81;5022146;28;20390;-62
2023/04/16 08:26:01;;;;;;;30.40;16.10;;;;;;;8.53;100.00;102317.34;5024690;28;20032;-62
2023/04/16 08:28:26;;;;;;;32.10;16.10;;;;;;;8.50;100.00;102326.25;5034907;28;20049;-62
2023/04/16 08:30:51;;;;;;;33.38;16.40;;;;;;;8.50;100.00;102325.41;5031268;28;20022;-63
2023/04/16 08:33:17;;;;;;;28.45;15.63;;;;;;;8.50;100.00;102320.97;5021593;28;20048;-63
2023/04/16 08:35:42;;;;;;;27.13;15.32;;;;;;;8.55;100.00;102331.34;5028345;28;20044;-63
2023/04/16 08:38:07;;;;;;;26.50;16.00;;;;;;;8.58;100.00;102331.22;5025387;28;20033;-63
2023/04/16 08:40:37;;;;;;;27.75;15.30;;;;;;;8.57;100.00;102326.84;5029788;28;20040;-63
2023/04/16 08:43:05;;;;;;;28.30;16.40;;;;;;;8.58;100.00;102327.72;5028885;28;20135;-62
2023/04/16 08:45:33;;;;;;;30.65;16.50;;;;;;;8.61;100.00;102331.09;5021778;28;20541;-62
2023/04/16 08:48:00;;;;;;;26.43;15.80;;;;;;;8.66;100.00;102339.69;5021741;28;20453;-62
2023/04/16 08:50:27;;;;;;;28.45;17.15;;;;;;;8.64;100.00;102333.63;5021745;28;20316;-60
2023/04/16 08:52:57;;;;;;;33.90;16.05;;;;;;;8.65;100.00;102332.66;5028806;28;20037;-62
2023/04/16 08:55:29;;;;;;;27.73;16.25;;;;;;;8.69;100.00;102341.31;5025083;28;20033;-62
2023/04/16 08:58:00;;;;;;;28.50;16.58;;;;;;;8.73;100.00;102342.03;5025088;28;20042;-62
2023/04/16 09:00:25;;;;;;;28.60;15.85;;;;;;;8.72;100.00;102338.53;5028971;28;20032;-62
2023/04/16 09:02:51;;;;;;;30.67;16.58;;;;;;;8.77;100.00;102343.66;5030214;28;20124;-62
2023/04/16 09:05:17;;;;;;;28.30;15.77;;;;;;;8.79;100.00;102349.72;5022965;28;20060;-62
2023/04/16 09:07:45;;;;;;;29.80;15.65;;;;;;;8.81;100.00;102347.88;5025493;28;20360;-62
2023/04/16 09:10:11;;;;;;;28.58;16.90;;;;;;;8.81;100.00;102347.88;5030649;28;20073;-62
2023/04/16 09:12:38;;;;;;;30.45;16.02;;;;;;;8.83;100.00;102353.97;5021707;28;20059;-62
2023/04/16 09:15:04;;;;;;;34.50;16.13;;;;;;;8.84;100.00;102355.69;5018382;28;20029;-62
2023/04/16 09:17:30;;;;;;;25.77;15.85;;;;;;;8.86;100.00;102352.03;5021855;28;20037;-62
2023/04/16 09:19:55;;;;;;;28.70;16.25;;;;;;;8.88;100.00;102351.97;5020370;28;20467;-53
2023/04/16 09:22:20;;;;;;;31.85;16.05;;;;;;;8.91;100.00;102357.13;5025723;28;20060;-55
2023/04/16 09:24:47;;;;;;;28.00;16.35;;;;;;;8.95;100.00;102355.22;5025570;28;20059;-57
2023/04/16 09:27:12;;;;;;;29.52;16.35;;;;;;;8.98;100.00;102353.28;5023974;28;20108;-55
2023/04/16 09:29:40;;;;;;;28.65;15.35;;;;;;;9.01;100.00;102357.56;5024744;28;20037;-57
2023/04/16 09:32:07;;;;;;;27.88;16.27;;;;;;;9.03;100.00;102361.03;5029714;28;20030;-59
2023/04/16 09:34:34;;;;;;;29.45;17.00;;;;;;;9.05;100.00;102365.31;5029968;28;20033;-56
2023/04/16 09:37:18;;;;;;;27.85;16.00;;;;;;;9.10;100.00;102361.59;5015964;28;20426;-57
2023/04/16 09:39:51;;;;;;;26.67;15.85;;;;;;;9.10;100.00;102372.19;5020126;28;20029;-54
2023/04/16 09:42:21;;;;;;;26.33;14.13;;;;;;;9.11;100.00;102369.47;5029388;28;20029;-55
2023/04/16 09:44:48;;;;;;;25.98;15.77;;;;;;;9.17;100.00;102376.28;5025305;28;20045;-57
2023/04/16 09:47:13;;;;;;;25.80;15.65;;;;;;;9.17;100.00;102373.63;5034735;28;20035;-57
2023/04/16 09:49:42;;;;;;;28.77;15.23;;;;;;;9.20;100.00;102378.78;5028234;28;20026;-57
2023/04/16 09:52:15;;;;;;;28.20;14.77;;;;;;;9.24;100.00;102377.72;5023321;28;20068;-56
2023/04/16 09:54:45;;;;;;;25.92;15.98;;;;;;;9.26;100.00;102381.16;5015570;28;20042;-57
2023/04/16 09:57:11;;;;;;;23.23;14.85;;;;;;;9.26;100.00;102383.81;5026634;28;20107;-57
2023/04/16 09:59:36;;;;;;;28.15;15.80;;;;;;;9.29;100.00;102382.81;5034604;28;20502;-54
2023/04/16 10:02:02;;;;;;;26.70;15.02;;;;;;;9.33;100.00;102381.75;5026799;28;20031;-57
2023/04/16 10:04:27;;;;;;;27.48;15.45;;;;;;;9.28;100.00;102387.25;5022577;28;20045;-56
2023/04/16 10:07:05;;;;;;;23.38;15.52;;;;;;;9.33;100.00;102392.34;5019255;28;20142;-54
2023/04/16 10:09:35;;;;;;;24.85;15.80;;;;;;;9.34;100.00;102386.09;5021046;28;20352;-56
2023/04/16 10:12:01;;;;;;;30.45;16.80;;;;;;;9.34;100.00;102381.69;5025878;28;20034;-53
2023/04/16 10:14:26;;;;;;;29.35;15.40;;;;;;;9.37;100.00;102388.59;5026135;28;20103;-56
2023/04/16 10:16:52;;;;;;;25.75;15.52;;;;;;;9.36;100.00;102392.19;5030539;28;20104;-57
2023/04/16 10:19:17;;;;;;;27.55;16.15;;;;;;;9.37;100.00;102392.09;5015559;28;20042;-57
2023/04/16 10:21:44;;;;;;;24.38;16.05;;;;;;;9.36;100.00;102390.41;5020256;28;20029;-56
2023/04/16 10:24:10;;;;;;;26.13;15.80;;;;;;;9.38;100.00;102388.53;5018266;28;20169;-57
2023/04/16 10:26:35;;;;;;;26.83;16.33;;;;;;;9.40;100.00;102388.47;5031148;28;20030;-57
2023/04/16 10:29:01;;;;;;;28.85;16.92;;;;;;;9.41;100.00;102388.41;5018908;28;20063;-57
2023/04/16 10:31:27;;;;;;;27.60;16.13;;;;;;;9.40;100.00;102391.13;5022450;28;20111;-57
2023/04/16 10:33:53;;;;;;;24.80;16.00;;;;;;;9.40;100.00;102397.28;5021714;28;20406;-56
2023/04/16 10:36:23;;;;;;;28.52;15.77;;;;;;;9.42;100.00;102398.06;5026631;28;20041;-57
2023/04/16 10:38:53;;;;;;;27.45;16.17;;;;;;;9.42;100.00;102400.72;5024599;28;20500;-57
2023/04/16 10:41:19;;;;;;;26.98;16.10;;;;;;;9.45;100.00;102399.72;5026680;28;20439;-57
2023/04/16 10:43:49;;;;;;;27.13;16.23;;;;;;;9.45;100.00;102391.75;5023602;28;20063;-57
2023/04/16 10:46:17;;;;;;;26.45;15.93;;;;;;;9.42;100.00;102398.06;5048299;28;20495;-56
2023/04/16 10:48:43;;;;;;;33.60;16.63;;;;;;;9.44;100.00;102404.19;5023268;28;20068;-57
2023/04/16 10:51:22;;;;;;;29.08;16.23;;;;;;;9.50;100.00;102402.16;5019020;28;20518;-57
2023/04/16 10:53:48;;;;;;;21.45;14.93;;;;;;;9.51;100.00;102395.91;5025597;28;20128;-57
2023/04/16 10:56:14;;;;;;;27.63;15.85;;;;;;;9.54;100.00;102403.72;5020056;28;20447;-56
2023/04/16 10:58:40;;;;;;;32.28;16.95;;;;;;;9.51;100.00;102398.56;5035176;28;20041;-57
2023/04/16 11:01:15;;;;;;;25.75;16.48;;;;;;;9.54;100.00;102401.06;5026557;28;20033;-57
2023/04/16 11:03:46;;;;;;;29.42;16.35;;;;;;;9.57;100.00;102396.47;5030902;28;20045;-57
2023/04/16 11:06:22;;;;;;;27.67;15.75;;;;;;;9.58;100.00;102395.56;5021930;28;20030;-57